Terminal Aerodrome Forecast
Issued by NWS

Home | Current Version | Previous Version | Text Only | Print | Product List | Glossary On
Versions: 1 2 3 4 5 6 7 8 9 10 11 12 13 14 15 16 17 18 19 20 21 22 23 24
000
FTUS44 KTSA 240300 AAA
TAFMLC
TAF AMD
KMLC 240305Z 2403/2424 14010KT P6SM VCTS BKN040CB
     FM240500 17007KT 3SM -TSRA OVC015CB
      TEMPO 2405/2408 1SM TSRA BKN008CB
     FM240800 17007KT 2SM TSRA OVC015CB
      TEMPO 2408/2412 1SM TSRA BKN008CB
     FM241200 17010KT 3SM -TSRA OVC012CB
     FM241600 18013G20KT 4SM -TSRA OVC015CB=

USA.gov is the U.S. government's official web portal to all federal, state and local government web resources and services.